sensor_id;sensor_type;location;lat;lon;timestamp;temperature;humidity
19888;DHT22;10106;51.332;12.336;2023-08-30T08:20:42;24.60;99.90
19888;DHT22;10106;51.332;12.336;2023-08-30T08:23:08;33.30;55.30
19888;DHT22;10106;51.332;12.336;2023-08-30T08:25:34;33.10;55.10
19888;DHT22;10106;51.332;12.336;2023-08-30T08:28:00;33.10;56.00
19888;DHT22;10106;51.332;12.336;2023-08-30T08:30:25;33.70;56.40
19888;DHT22;10106;51.332;12.336;2023-08-30T08:32:51;33.50;54.10
19888;DHT22;10106;51.332;12.336;2023-08-30T08:35:17;34.20;53.80
19888;DHT22;10106;51.332;12.336;2023-08-30T08:37:45;34.80;52.80
19888;DHT22;10106;51.332;12.336;2023-08-30T08:40:14;34.00;53.40
19888;DHT22;10106;51.332;12.336;2023-08-30T08:42:47;33.80;53.60
19888;DHT22;10106;51.332;12.336;2023-08-30T08:45:16;34.00;52.90
19888;DHT22;10106;51.332;12.336;2023-08-30T08:47:42;33.20;52.20
19888;DHT22;10106;51.332;12.336;2023-08-30T08:50:08;33.40;52.50
19888;DHT22;10106;51.332;12.336;2023-08-30T08:52:37;33.60;52.20
19888;DHT22;10106;51.332;12.336;2023-08-30T08:55:03;33.60;53.10
19888;DHT22;10106;51.332;12.336;2023-08-30T08:57:30;34.50;52.40
19888;DHT22;10106;51.332;12.336;2023-08-30T08:59:56;35.10;52.00
19888;DHT22;10106;51.332;12.336;2023-08-30T09:02:22;35.10;50.40
19888;DHT22;10106;51.332;12.336;2023-08-30T09:04:50;34.90;49.80
19888;DHT22;10106;51.332;12.336;2023-08-30T09:07:18;34.70;50.70
19888;DHT22;10106;51.332;12.336;2023-08-30T09:09:44;34.70;48.90
19888;DHT22;10106;51.332;12.336;2023-08-30T09:12:10;34.40;48.70
19888;DHT22;10106;51.332;12.336;2023-08-30T09:14:39;34.40;49.30
19888;DHT22;10106;51.332;12.336;2023-08-30T09:17:04;34.50;49.10
19888;DHT22;10106;51.332;12.336;2023-08-30T09:19:30;34.00;48.70
19888;DHT22;10106;51.332;12.336;2023-08-30T09:21:58;34.30;49.40
19888;DHT22;10106;51.332;12.336;2023-08-30T09:24:24;35.30;49.10
19888;DHT22;10106;51.332;12.336;2023-08-30T09:26:54;35.50;46.30
19888;DHT22;10106;51.332;12.336;2023-08-30T09:29:20;35.70;45.70
19888;DHT22;10106;51.332;12.336;2023-08-30T09:31:50;35.90;44.10
19888;DHT22;10106;51.332;12.336;2023-08-30T09:34:15;36.20;44.40
19888;DHT22;10106;51.332;12.336;2023-08-30T09:36:41;35.60;44.40
19888;DHT22;10106;51.332;12.336;2023-08-30T09:39:08;34.30;45.00
19888;DHT22;10106;51.332;12.336;2023-08-30T09:41:40;31.70;47.70
19888;DHT22;10106;51.332;12.336;2023-08-30T09:44:10;30.30;51.20
19888;DHT22;10106;51.332;12.336;2023-08-30T09:46:46;30.30;51.00
19888;DHT22;10106;51.332;12.336;2023-08-30T09:49:14;30.10;50.90
19888;DHT22;10106;51.332;12.336;2023-08-30T09:51:41;29.00;51.40
19888;DHT22;10106;51.332;12.336;2023-08-30T09:54:13;28.30;54.30
19888;DHT22;10106;51.332;12.336;2023-08-30T09:59:10;32.70;49.30
19888;DHT22;10106;51.332;12.336;2023-08-30T10:01:36;34.30;47.40
19888;DHT22;10106;51.332;12.336;2023-08-30T10:04:02;34.70;46.20
19888;DHT22;10106;51.332;12.336;2023-08-30T10:06:29;34.00;44.90
19888;DHT22;10106;51.332;12.336;2023-08-30T10:09:04;31.30;46.60
19888;DHT22;10106;51.332;12.336;2023-08-30T10:11:33;28.70;50.70
19888;DHT22;10106;51.332;12.336;2023-08-30T10:16:30;26.90;55.10
19888;DHT22;10106;51.332;12.336;2023-08-30T10:19:01;25.20;58.00
19888;DHT22;10106;51.332;12.336;2023-08-30T10:21:34;24.80;58.90
19888;DHT22;10106;51.332;12.336;2023-08-30T10:24:07;24.50;62.30
19888;DHT22;10106;51.332;12.336;2023-08-30T10:29:00;24.40;63.70
19888;DHT22;10106;51.332;12.336;2023-08-30T10:31:28;24.40;64.00
19888;DHT22;10106;51.332;12.336;2023-08-30T10:33:54;24.70;65.10
19888;DHT22;10106;51.332;12.336;2023-08-30T10:36:21;24.90;64.60
19888;DHT22;10106;51.332;12.336;2023-08-30T10:38:50;24.80;63.60
19888;DHT22;10106;51.332;12.336;2023-08-30T10:41:23;24.90;63.80
19888;DHT22;10106;51.332;12.336;2023-08-30T10:43:52;24.70;64.40
19888;DHT22;10106;51.332;12.336;2023-08-30T10:46:32;24.30;65.90
19888;DHT22;10106;51.332;12.336;2023-08-30T10:49:11;23.80;71.20
19888;DHT22;10106;51.332;12.336;2023-08-30T10:51:39;23.40;76.00
19888;DHT22;10106;51.332;12.336;2023-08-30T10:54:14;23.10;80.80
19888;DHT22;10106;51.332;12.336;2023-08-30T10:59:16;22.80;96.60
19888;DHT22;10106;51.332;12.336;2023-08-30T11:01:43;22.60;94.60
19888;DHT22;10106;51.332;12.336;2023-08-30T11:04:09;22.60;94.10
19888;DHT22;10106;51.332;12.336;2023-08-30T11:06:37;22.50;97.30
19888;DHT22;10106;51.332;12.336;2023-08-30T11:09:03;22.60;98.20
19888;DHT22;10106;51.332;12.336;2023-08-30T11:11:29;23.00;95.80
19888;DHT22;10106;51.332;12.336;2023-08-30T11:13:56;23.90;91.10
19888;DHT22;10106;51.332;12.336;2023-08-30T11:16:28;24.60;85.80
19888;DHT22;10106;51.332;12.336;2023-08-30T11:18:54;24.60;78.00
19888;DHT22;10106;51.332;12.336;2023-08-30T11:21:20;24.60;76.70
19888;DHT22;10106;51.332;12.336;2023-08-30T11:23:46;24.40;80.10
19888;DHT22;10106;51.332;12.336;2023-08-30T11:26:12;24.30;77.30
19888;DHT22;10106;51.332;12.336;2023-08-30T11:28:38;24.30;76.50
19888;DHT22;10106;51.332;12.336;2023-08-30T11:31:08;24.10;76.80
19888;DHT22;10106;51.332;12.336;2023-08-30T11:33:34;24.10;77.10
19888;DHT22;10106;51.332;12.336;2023-08-30T11:36:00;23.90;78.40
19888;DHT22;10106;51.332;12.336;2023-08-30T11:38:26;23.70;79.90
19888;DHT22;10106;51.332;12.336;2023-08-30T11:40:52;23.80;78.60
19888;DHT22;10106;51.332;12.336;2023-08-30T11:43:17;24.10;78.80
19888;DHT22;10106;51.332;12.336;2023-08-30T11:45:43;24.20;74.00
19888;DHT22;10106;51.332;12.336;2023-08-30T11:48:09;24.20;73.80
19888;DHT22;10106;51.332;12.336;2023-08-30T11:50:35;24.20;74.80
19888;DHT22;10106;51.332;12.336;2023-08-30T11:53:00;24.10;76.20
19888;DHT22;10106;51.332;12.336;2023-08-30T11:55:26;24.30;76.90
19888;DHT22;10106;51.332;12.336;2023-08-30T11:57:52;24.50;78.10
19888;DHT22;10106;51.332;12.336;2023-08-30T12:00:18;24.60;77.20
19888;DHT22;10106;51.332;12.336;2023-08-30T12:02:45;24.40;76.80
19888;DHT22;10106;51.332;12.336;2023-08-30T12:05:14;24.40;77.20
19888;DHT22;10106;51.332;12.336;2023-08-30T12:07:40;24.20;78.30
19888;DHT22;10106;51.332;12.336;2023-08-30T12:10:10;24.30;78.10
19888;DHT22;10106;51.332;12.336;2023-08-30T12:12:36;24.40;77.90
19888;DHT22;10106;51.332;12.336;2023-08-30T12:15:12;24.40;77.90
19888;DHT22;10106;51.332;12.336;2023-08-30T12:17:37;24.40;76.50
19888;DHT22;10106;51.332;12.336;2023-08-30T12:20:03;24.40;76.50
19888;DHT22;10106;51.332;12.336;2023-08-30T12:22:38;24.40;76.50
19888;DHT22;10106;51.332;12.336;2023-08-30T12:25:16;24.40;77.20
19888;DHT22;10106;51.332;12.336;2023-08-30T12:27:42;24.00;74.90
19888;DHT22;10106;51.332;12.336;2023-08-30T12:30:08;23.80;77.10
19888;DHT22;10106;51.332;12.336;2023-08-30T12:32:34;23.70;78.10
19888;DHT22;10106;51.332;12.336;2023-08-30T12:34:59;23.70;79.00
19888;DHT22;10106;51.332;12.336;2023-08-30T12:37:28;23.80;78.50
19888;DHT22;10106;51.332;12.336;2023-08-30T12:39:56;24.00;76.40
19888;DHT22;10106;51.332;12.336;2023-08-30T12:42:22;24.00;76.40
19888;DHT22;10106;51.332;12.336;2023-08-30T12:44:47;24.30;73.40
19888;DHT22;10106;51.332;12.336;2023-08-30T12:47:13;24.10;73.20
19888;DHT22;10106;51.332;12.336;2023-08-30T12:49:42;24.00;74.30
19888;DHT22;10106;51.332;12.336;2023-08-30T12:52:07;24.10;75.50
19888;DHT22;10106;51.332;12.336;2023-08-30T12:54:33;24.40;75.50
19888;DHT22;10106;51.332;12.336;2023-08-30T12:56:58;24.40;74.60
19888;DHT22;10106;51.332;12.336;2023-08-30T12:59:24;24.50;76.40
19888;DHT22;10106;51.332;12.336;2023-08-30T13:01:56;24.50;76.00
19888;DHT22;10106;51.332;12.336;2023-08-30T13:04:22;24.40;74.80
19888;DHT22;10106;51.332;12.336;2023-08-30T13:06:47;24.50;73.40
19888;DHT22;10106;51.332;12.336;2023-08-30T13:09:13;24.20;71.50
19888;DHT22;10106;51.332;12.336;2023-08-30T13:11:42;24.00;71.00
19888;DHT22;10106;51.332;12.336;2023-08-30T13:14:07;24.00;71.20
19888;DHT22;10106;51.332;12.336;2023-08-30T13:16:33;24.00;72.70
19888;DHT22;10106;51.332;12.336;2023-08-30T13:18:59;23.90;74.40
19888;DHT22;10106;51.332;12.336;2023-08-30T13:21:25;23.70;75.60
19888;DHT22;10106;51.332;12.336;2023-08-30T13:23:51;23.50;76.50
19888;DHT22;10106;51.332;12.336;2023-08-30T13:26:19;23.30;78.80
19888;DHT22;10106;51.332;12.336;2023-08-30T13:28:45;23.10;75.70
19888;DHT22;10106;51.332;12.336;2023-08-30T13:31:14;23.00;79.30
19888;DHT22;10106;51.332;12.336;2023-08-30T13:33:39;23.00;78.00
19888;DHT22;10106;51.332;12.336;2023-08-30T13:36:08;23.20;76.00
19888;DHT22;10106;51.332;12.336;2023-08-30T13:38:34;23.30;75.70
19888;DHT22;10106;51.332;12.336;2023-08-30T13:41:00;23.40;75.00
19888;DHT22;10106;51.332;12.336;2023-08-30T13:43:25;23.50;74.50
19888;DHT22;10106;51.332;12.336;2023-08-30T13:45:58;23.50;72.10
19888;DHT22;10106;51.332;12.336;2023-08-30T13:48:23;23.60;71.80
19888;DHT22;10106;51.332;12.336;2023-08-30T13:50:49;23.20;67.00
19888;DHT22;10106;51.332;12.336;2023-08-30T13:53:15;23.00;67.60
19888;DHT22;10106;51.332;12.336;2023-08-30T13:55:44;22.90;68.10
19888;DHT22;10106;51.332;12.336;2023-08-30T13:58:10;22.80;69.60
19888;DHT22;10106;51.332;12.336;2023-08-30T14:00:36;22.80;70.90
19888;DHT22;10106;51.332;12.336;2023-08-30T14:03:02;22.80;70.70
19888;DHT22;10106;51.332;12.336;2023-08-30T14:05:28;22.60;71.30
19888;DHT22;10106;51.332;12.336;2023-08-30T14:07:54;22.60;73.60
19888;DHT22;10106;51.332;12.336;2023-08-30T14:10:19;22.60;72.50
19888;DHT22;10106;51.332;12.336;2023-08-30T14:12:45;22.70;73.00
19888;DHT22;10106;51.332;12.336;2023-08-30T14:15:11;22.70;70.50
19888;DHT22;10106;51.332;12.336;2023-08-30T14:17:36;22.80;71.50
19888;DHT22;10106;51.332;12.336;2023-08-30T14:20:03;23.00;71.90
19888;DHT22;10106;51.332;12.336;2023-08-30T14:22:29;23.10;71.10
19888;DHT22;10106;51.332;12.336;2023-08-30T14:24:55;23.30;72.50
19888;DHT22;10106;51.332;12.336;2023-08-30T14:27:21;23.50;72.90
19888;DHT22;10106;51.332;12.336;2023-08-30T14:29:47;23.30;73.50
19888;DHT22;10106;51.332;12.336;2023-08-30T14:32:13;23.30;74.30
19888;DHT22;10106;51.332;12.336;2023-08-30T14:34:39;23.40;73.20
19888;DHT22;10106;51.332;12.336;2023-08-30T14:37:05;23.40;71.90
19888;DHT22;10106;51.332;12.336;2023-08-30T14:39:30;23.10;71.80
19888;DHT22;10106;51.332;12.336;2023-08-30T14:41:59;22.90;76.30
19888;DHT22;10106;51.332;12.336;2023-08-30T14:44:25;22.70;74.90
19888;DHT22;10106;51.332;12.336;2023-08-30T14:46:51;22.60;77.20
19888;DHT22;10106;51.332;12.336;2023-08-30T14:49:19;22.40;75.40
19888;DHT22;10106;51.332;12.336;2023-08-30T14:51:45;22.30;78.90
19888;DHT22;10106;51.332;12.336;2023-08-30T14:54:10;22.30;81.80
19888;DHT22;10106;51.332;12.336;2023-08-30T14:56:37;22.40;79.00
19888;DHT22;10106;51.332;12.336;2023-08-30T14:59:04;22.40;79.50
19888;DHT22;10106;51.332;12.336;2023-08-30T15:01:32;22.50;78.80
19888;DHT22;10106;51.332;12.336;2023-08-30T15:03:59;22.60;80.40
19888;DHT22;10106;51.332;12.336;2023-08-30T15:06:28;22.70;76.00
19888;DHT22;10106;51.332;12.336;2023-08-30T15:08:56;22.60;75.70
19888;DHT22;10106;51.332;12.336;2023-08-30T15:11:23;22.60;75.40
19888;DHT22;10106;51.332;12.336;2023-08-30T15:13:48;22.70;75.20
19888;DHT22;10106;51.332;12.336;2023-08-30T15:16:14;22.70;76.40
19888;DHT22;10106;51.332;12.336;2023-08-30T15:18:40;22.70;74.90
19888;DHT22;10106;51.332;12.336;2023-08-30T15:21:05;22.70;77.00
19888;DHT22;10106;51.332;12.336;2023-08-30T15:23:32;22.70;76.10
19888;DHT22;10106;51.332;12.336;2023-08-30T15:25:57;22.60;74.80
19888;DHT22;10106;51.332;12.336;2023-08-30T15:28:23;22.60;75.40
19888;DHT22;10106;51.332;12.336;2023-08-30T15:30:50;22.50;75.60
19888;DHT22;10106;51.332;12.336;2023-08-30T15:33:16;22.40;75.80
19888;DHT22;10106;51.332;12.336;2023-08-30T15:35:42;22.20;76.20
19888;DHT22;10106;51.332;12.336;2023-08-30T15:38:08;22.10;75.20
19888;DHT22;10106;51.332;12.336;2023-08-30T15:40:38;22.00;77.70
19888;DHT22;10106;51.332;12.336;2023-08-30T15:43:11;21.90;78.90
19888;DHT22;10106;51.332;12.336;2023-08-30T15:45:37;21.80;79.20
19888;DHT22;10106;51.332;12.336;2023-08-30T15:48:03;21.70;80.00
19888;DHT22;10106;51.332;12.336;2023-08-30T15:50:30;21.60;80.50
19888;DHT22;10106;51.332;12.336;2023-08-30T15:52:56;21.60;81.30
19888;DHT22;10106;51.332;12.336;2023-08-30T15:55:25;21.60;83.00
19888;DHT22;10106;51.332;12.336;2023-08-30T15:57:54;21.60;83.80
19888;DHT22;10106;51.332;12.336;2023-08-30T16:00:20;21.50;83.80
19888;DHT22;10106;51.332;12.336;2023-08-30T16:02:45;21.50;85.40
19888;DHT22;10106;51.332;12.336;2023-08-30T16:05:11;21.50;86.00
19888;DHT22;10106;51.332;12.336;2023-08-30T16:07:43;21.50;90.00
19888;DHT22;10106;51.332;12.336;2023-08-30T16:10:08;21.50;90.10
19888;DHT22;10106;51.332;12.336;2023-08-30T16:12:34;21.50;90.60
19888;DHT22;10106;51.332;12.336;2023-08-30T16:15:00;21.50;91.60
19888;DHT22;10106;51.332;12.336;2023-08-30T16:17:25;21.40;91.00
19888;DHT22;10106;51.332;12.336;2023-08-30T16:19:53;21.40;90.60
19888;DHT22;10106;51.332;12.336;2023-08-30T16:22:21;21.40;91.60
19888;DHT22;10106;51.332;12.336;2023-08-30T16:24:47;21.30;92.10
19888;DHT22;10106;51.332;12.336;2023-08-30T16:27:13;21.30;92.80
19888;DHT22;10106;51.332;12.336;2023-08-30T16:32:08;21.30;93.10
19888;DHT22;10106;51.332;12.336;2023-08-30T16:34:35;21.30;93.70
19888;DHT22;10106;51.332;12.336;2023-08-30T16:37:00;21.30;95.10
19888;DHT22;10106;51.332;12.336;2023-08-30T16:39:26;21.20;94.20
19888;DHT22;10106;51.332;12.336;2023-08-30T16:41:52;21.20;94.80
19888;DHT22;10106;51.332;12.336;2023-08-30T16:44:18;21.10;96.10
19888;DHT22;10106;51.332;12.336;2023-08-30T16:46:43;21.10;96.50
19888;DHT22;10106;51.332;12.336;2023-08-30T16:49:12;21.00;96.30
19888;DHT22;10106;51.332;12.336;2023-08-30T16:51:39;21.00;97.00
19888;DHT22;10106;51.332;12.336;2023-08-30T16:54:05;20.90;97.80
19888;DHT22;10106;51.332;12.336;2023-08-30T16:56:37;20.90;98.30
19888;DHT22;10106;51.332;12.336;2023-08-30T16:59:04;20.80;98.70
19888;DHT22;10106;51.332;12.336;2023-08-30T17:01:31;20.70;99.50
19888;DHT22;10106;51.332;12.336;2023-08-30T17:03:59;20.60;99.90
19888;DHT22;10106;51.332;12.336;2023-08-30T17:06:24;20.60;99.90
19888;DHT22;10106;51.332;12.336;2023-08-30T17:08:52;20.50;99.90
19888;DHT22;10106;51.332;12.336;2023-08-30T17:11:18;20.40;99.90
19888;DHT22;10106;51.332;12.336;2023-08-30T17:13:44;20.30;99.90
19888;DHT22;10106;51.332;12.336;2023-08-30T17:16:11;20.20;99.90
19888;DHT22;10106;51.332;12.336;2023-08-30T17:18:37;20.00;99.90
19888;DHT22;10106;51.332;12.336;2023-08-30T17:21:06;20.00;99.90
19888;DHT22;10106;51.332;12.336;2023-08-30T17:23:35;19.90;99.90
19888;DHT22;10106;51.332;12.336;2023-08-30T17:28:37;19.70;99.90
19888;DHT22;10106;51.332;12.336;2023-08-30T17:31:03;19.60;99.90
19888;DHT22;10106;51.332;12.336;2023-08-30T17:33:38;19.50;99.90
19888;DHT22;10106;51.332;12.336;2023-08-30T17:36:06;19.40;99.90
19888;DHT22;10106;51.332;12.336;2023-08-30T17:38:32;19.30;99.90
19888;DHT22;10106;51.332;12.336;2023-08-30T17:43:30;19.10;99.90
19888;DHT22;10106;51.332;12.336;2023-08-30T17:45:56;19.00;99.90
19888;DHT22;10106;51.332;12.336;2023-08-30T17:48:23;19.00;99.90
19888;DHT22;10106;51.332;12.336;2023-08-30T17:50:52;18.90;99.90
19888;DHT22;10106;51.332;12.336;2023-08-30T17:53:18;18.80;99.90
19888;DHT22;10106;51.332;12.336;2023-08-30T17:55:44;18.70;99.90
19888;DHT22;10106;51.332;12.336;2023-08-30T17:58:09;18.60;99.90
19888;DHT22;10106;51.332;12.336;2023-08-30T18:00:35;18.50;99.90
19888;DHT22;10106;51.332;12.336;2023-08-30T18:03:04;18.40;99.90
19888;DHT22;10106;51.332;12.336;2023-08-30T18:05:29;18.40;99.90
